Time;durP1;ratioP1;P1;durP2;ratioP2;P2;SDS_P1;SDS_P2;PMS_P1;PMS_P2;Temp;Humidity;BMP_temperature;BMP_pressure;BME280_temperature;BME280_humidity;BME280_pressure;Samples;Min_cycle;Max_cycle;Signal;HPM_P1;HPM_P2
2023/05/01 00:00:49;;;;;;;2.95;2.08;;;21.60;62.10;;;;;;4851191;28;91203;-93
2023/05/01 00:03:18;;;;;;;2.45;1.60;;;21.60;62.10;;;;;;4854884;28;88411;-92
2023/05/01 00:05:47;;;;;;;4.03;2.03;;;21.60;62.00;;;;;;4854110;28;90103;-93
2023/05/01 00:08:13;;;;;;;2.80;1.63;;;21.60;62.30;;;;;;4853101;28;90483;-93
2023/05/01 00:10:38;;;;;;;3.10;1.80;;;21.60;62.30;;;;;;4855140;28;89159;-91
2023/05/01 00:13:05;;;;;;;2.47;1.77;;;21.60;62.20;;;;;;4854914;28;87516;-93
2023/05/01 00:15:31;;;;;;;2.38;1.65;;;21.60;62.30;;;;;;4853467;28;89321;-94
2023/05/01 00:17:57;;;;;;;1.75;1.45;;;21.60;62.20;;;;;;4855348;28;90664;-92
2023/05/01 00:20:28;;;;;;;2.17;1.80;;;21.60;62.30;;;;;;4853977;28;90112;-92
2023/05/01 00:22:54;;;;;;;3.15;1.90;;;21.60;62.50;;;;;;4854237;28;87374;-92
2023/05/01 00:25:20;;;;;;;2.40;1.88;;;21.60;62.10;;;;;;4870664;28;94795;-92
2023/05/01 00:27:47;;;;;;;1.67;1.52;;;21.50;62.20;;;;;;4853444;28;92321;-92
2023/05/01 00:30:13;;;;;;;2.90;1.70;;;21.50;62.40;;;;;;4868441;28;91306;-93
2023/05/01 00:32:39;;;;;;;2.40;1.90;;;21.50;62.20;;;;;;4862173;28;86942;-92
2023/05/01 00:35:04;;;;;;;2.83;1.80;;;21.60;62.50;;;;;;4853358;28;90377;-92
2023/05/01 00:37:31;;;;;;;3.75;1.67;;;21.50;62.40;;;;;;4855172;28;90455;-93
2023/05/01 00:39:56;;;;;;;1.90;1.67;;;21.50;62.30;;;;;;4853881;28;89976;-92
2023/05/01 00:42:22;;;;;;;2.50;1.90;;;21.60;62.30;;;;;;4867691;28;87562;-92
2023/05/01 00:44:48;;;;;;;3.42;2.05;;;21.50;62.10;;;;;;4855512;28;89845;-93
2023/05/01 00:47:13;;;;;;;2.85;1.60;;;21.50;62.10;;;;;;4855508;28;90357;-93
2023/05/01 00:49:42;;;;;;;3.67;1.55;;;21.50;62.30;;;;;;4858071;28;89005;-93
2023/05/01 00:52:11;;;;;;;3.65;1.77;;;21.50;62.40;;;;;;4871687;28;88684;-93
2023/05/01 00:54:37;;;;;;;2.90;1.77;;;21.50;62.30;;;;;;4857072;28;90595;-93
2023/05/01 00:57:03;;;;;;;3.35;1.80;;;21.50;62.20;;;;;;4852680;28;91012;-92
2023/05/01 00:59:29;;;;;;;2.63;1.83;;;21.50;62.30;;;;;;4853619;28;90339;-92
2023/05/01 01:01:55;;;;;;;1.98;1.52;;;21.50;62.10;;;;;;4854367;28;87924;-91
2023/05/01 01:04:21;;;;;;;3.67;1.55;;;21.50;62.00;;;;;;4852954;28;90041;-92
2023/05/01 01:07:04;;;;;;;1.58;1.30;;;21.50;62.20;;;;;;4857228;28;92042;-92
2023/05/01 01:09:38;;;;;;;2.40;1.80;;;21.50;62.10;;;;;;4858162;28;91229;-93
2023/05/01 01:12:23;;;;;;;2.22;1.75;;;21.50;62.00;;;;;;4873766;28;87663;-92
2023/05/01 01:15:10;;;;;;;2.78;2.20;;;21.50;62.00;;;;;;4856955;28;89077;-92
2023/05/01 01:17:55;;;;;;;2.90;1.90;;;21.40;62.00;;;;;;4854540;28;92696;-93
2023/05/01 01:20:54;;;;;;;1.67;1.50;;;21.50;62.00;;;;;;4871314;28;91395;-92
2023/05/01 01:23:20;;;;;;;;;;;21.40;61.90;;;;;;4858091;28;87216;-92
2023/05/01 01:26:03;;;;;;;2.00;1.70;;;21.40;63.00;;;;;;4874429;28;89167;-92
2023/05/01 01:28:50;;;;;;;2.88;1.60;;;21.40;62.00;;;;;;4856749;28;95273;-92
2023/05/01 01:31:30;;;;;;;2.17;1.50;;;21.40;62.10;;;;;;4856405;28;91544;-93
2023/05/01 01:34:22;;;;;;;1.60;1.48;;;21.40;62.40;;;;;;4856459;28;87353;-92
2023/05/01 01:36:53;;;;;;;1.90;1.60;;;21.40;62.10;;;;;;4857091;28;90522;-91
2023/05/01 01:39:28;;;;;;;1.45;1.27;;;21.40;62.10;;;;;;4856398;28;91541;-92
2023/05/01 01:41:56;;;;;;;2.03;1.50;;;21.40;62.20;;;;;;4848700;29;91626;-93
2023/05/01 01:44:32;;;;;;;4.07;1.70;;;21.40;62.30;;;;;;4852261;29;88486;-92
2023/05/01 01:46:59;;;;;;;2.45;1.80;;;21.40;62.30;;;;;;4854219;29;89828;-93
2023/05/01 01:49:28;;;;;;;2.33;1.60;;;21.40;62.40;;;;;;4854021;29;90368;-92
2023/05/01 01:51:55;;;;;;;2.05;1.70;;;21.30;62.10;;;;;;4837093;29;91289;-92
2023/05/01 01:54:28;;;;;;;3.15;1.60;;;21.30;62.20;;;;;;4852209;28;87359;-93
2023/05/01 01:56:55;;;;;;;1.88;1.48;;;21.40;62.40;;;;;;4859699;28;89001;-92
2023/05/01 01:59:23;;;;;;;2.72;1.77;;;21.30;62.00;;;;;;4853284;28;91274;-92
2023/05/01 02:01:50;;;;;;;1.88;1.52;;;21.40;62.10;;;;;;4856559;28;91307;-92
2023/05/01 02:04:16;;;;;;;3.05;1.70;;;21.30;62.00;;;;;;4856946;28;87369;-92
2023/05/01 02:06:44;;;;;;;1.70;1.40;;;21.30;62.10;;;;;;4863691;28;89325;-92
2023/05/01 02:09:12;;;;;;;2.35;1.58;;;21.30;62.10;;;;;;4854795;28;91772;-92
2023/05/01 02:11:39;;;;;;;2.90;1.52;;;21.30;62.00;;;;;;4855607;28;92110;-91
2023/05/01 02:14:05;;;;;;;2.00;1.67;;;21.30;62.10;;;;;;4855410;28;87343;-93
2023/05/01 02:16:33;;;;;;;2.03;1.33;;;21.30;62.10;;;;;;4852641;29;89304;-92
2023/05/01 02:19:02;;;;;;;1.55;1.33;;;21.30;62.10;;;;;;4852347;28;91560;-93
2023/05/01 02:21:29;;;;;;;1.80;1.60;;;21.30;62.00;;;;;;4837113;29;90134;-93
2023/05/01 02:23:59;;;;;;;2.03;1.70;;;21.30;62.10;;;;;;4835922;29;87436;-92
2023/05/01 02:26:27;;;;;;;2.25;1.50;;;21.30;62.00;;;;;;4835655;29;90104;-93
2023/05/01 02:28:53;;;;;;;3.73;1.53;;;21.30;62.00;;;;;;4837891;29;91228;-92
2023/05/01 02:31:20;;;;;;;1.92;1.60;;;21.30;62.10;;;;;;4827378;29;93585;-92
2023/05/01 02:33:46;;;;;;;1.80;1.60;;;21.30;62.00;;;;;;4835628;28;88334;-93
2023/05/01 02:36:12;;;;;;;1.55;1.45;;;21.30;62.10;;;;;;4853580;28;88804;-93
2023/05/01 02:38:38;;;;;;;2.33;1.70;;;21.30;61.90;;;;;;4855871;28;91287;-92
2023/05/01 02:41:05;;;;;;;2.40;1.67;;;21.30;62.00;;;;;;4855289;28;90044;-93
2023/05/01 02:43:32;;;;;;;2.03;1.58;;;21.30;62.00;;;;;;4856615;28;87014;-91
2023/05/01 02:46:00;;;;;;;1.77;1.50;;;21.30;62.10;;;;;;4871450;28;90044;-92
2023/05/01 02:48:27;;;;;;;1.55;1.40;;;21.20;62.10;;;;;;4854358;28;91285;-91
2023/05/01 02:50:54;;;;;;;1.42;1.30;;;21.30;62.10;;;;;;4871029;28;91193;-93
2023/05/01 02:53:21;;;;;;;1.77;1.63;;;21.30;62.10;;;;;;4856814;28;87340;-92
2023/05/01 02:55:48;;;;;;;2.28;1.35;;;21.20;62.10;;;;;;4855969;28;91051;-92
2023/05/01 02:58:18;;;;;;;2.72;1.40;;;21.20;62.10;;;;;;4855278;28;91296;-92
2023/05/01 03:00:44;;;;;;;2.45;1.65;;;21.30;62.80;;;;;;4855405;28;91177;-92
2023/05/01 03:03:11;;;;;;;2.38;1.45;;;21.30;62.10;;;;;;4872486;28;87574;-92
2023/05/01 03:05:39;;;;;;;2.13;1.45;;;21.20;62.20;;;;;;4869027;28;89436;-92
2023/05/01 03:08:05;;;;;;;1.60;1.42;;;21.20;62.20;;;;;;4870362;28;90646;-91
2023/05/01 03:10:31;;;;;;;2.15;1.73;;;21.20;62.20;;;;;;4869660;28;91163;-92
2023/05/01 03:12:57;;;;;;;2.38;1.55;;;21.20;62.10;;;;;;4854157;28;87573;-93
2023/05/01 03:15:22;;;;;;;2.30;1.42;;;21.20;62.20;;;;;;4857462;28;90513;-92
2023/05/01 03:17:48;;;;;;;1.88;1.50;;;21.20;62.20;;;;;;4855078;28;91325;-92
2023/05/01 03:20:14;;;;;;;1.90;1.52;;;21.20;62.20;;;;;;4852994;28;91491;-92
2023/05/01 03:22:40;;;;;;;1.58;1.40;;;21.20;62.00;;;;;;4855174;28;88446;-92
2023/05/01 03:25:07;;;;;;;1.38;1.20;;;21.20;62.20;;;;;;4854853;28;88967;-92
2023/05/01 03:27:32;;;;;;;2.63;1.80;;;21.20;62.20;;;;;;4854013;28;90294;-92
2023/05/01 03:29:58;;;;;;;2.38;1.45;;;21.20;62.10;;;;;;4854954;28;90972;-92
2023/05/01 03:32:24;;;;;;;2.00;1.60;;;21.20;62.20;;;;;;4854013;28;87343;-93
2023/05/01 03:34:49;;;;;;;1.35;1.25;;;21.20;62.20;;;;;;4855087;28;88849;-93
2023/05/01 03:37:15;;;;;;;1.70;1.50;;;21.20;62.10;;;;;;4855208;28;90243;-91
2023/05/01 03:39:41;;;;;;;1.73;1.30;;;21.10;61.90;;;;;;4857825;28;90293;-92
2023/05/01 03:42:06;;;;;;;1.20;1.08;;;21.10;61.90;;;;;;4854986;28;87398;-92
2023/05/01 03:44:32;;;;;;;1.65;1.27;;;21.20;62.20;;;;;;4856382;28;90414;-92
2023/05/01 03:46:58;;;;;;;1.70;1.55;;;21.10;62.00;;;;;;4854331;28;91104;-91
2023/05/01 03:49:24;;;;;;;1.70;1.50;;;21.10;62.40;;;;;;4854758;28;91261;-92
2023/05/01 03:51:50;;;;;;;2.00;1.35;;;21.10;62.00;;;;;;4870592;28;87215;-93
2023/05/01 03:54:15;;;;;;;2.80;1.58;;;21.10;62.20;;;;;;4855598;28;89737;-93
2023/05/01 03:56:41;;;;;;;1.75;1.40;;;21.10;62.00;;;;;;4856962;28;90264;-92
2023/05/01 03:59:07;;;;;;;2.53;1.73;;;21.10;62.10;;;;;;4871400;28;89948;-91
2023/05/01 04:01:32;;;;;;;2.85;1.65;;;21.10;62.10;;;;;;4857872;28;87485;-91
2023/05/01 04:03:58;;;;;;;1.92;1.50;;;21.10;62.10;;;;;;4854734;28;91136;-93
2023/05/01 04:06:25;;;;;;;1.45;1.35;;;21.10;62.20;;;;;;4854840;28;91421;-92
2023/05/01 04:08:50;;;;;;;1.75;1.50;;;21.10;62.30;;;;;;4856333;28;91506;-92
2023/05/01 04:11:16;;;;;;;2.17;1.50;;;21.10;62.10;;;;;;4870749;28;88057;-92
2023/05/01 04:13:42;;;;;;;1.63;1.23;;;21.10;62.20;;;;;;4854197;28;89585;-92
2023/05/01 04:16:08;;;;;;;1.65;1.40;;;21.10;62.20;;;;;;4855655;28;91302;-91
2023/05/01 04:18:34;;;;;;;3.35;1.77;;;21.10;62.20;;;;;;4858726;28;90660;-92
2023/05/01 04:21:00;;;;;;;2.00;1.45;;;21.10;62.30;;;;;;4858629;28;87395;-92
2023/05/01 04:23:25;;;;;;;2.03;1.52;;;21.10;62.10;;;;;;4858970;28;90020;-91
2023/05/01 04:25:51;;;;;;;2.20;1.52;;;21.10;62.30;;;;;;4860336;28;91995;-92
2023/05/01 04:28:16;;;;;;;1.83;1.30;;;21.10;62.20;;;;;;4859681;28;90968;-92
2023/05/01 04:30:42;;;;;;;1.40;1.30;;;21.10;62.10;;;;;;4859597;28;87375;-92
2023/05/01 04:33:11;;;;;;;1.40;1.27;;;21.10;62.10;;;;;;4858251;28;88418;-92
2023/05/01 04:35:38;;;;;;;1.75;1.30;;;21.10;62.10;;;;;;4858064;28;91083;-92
2023/05/01 04:38:04;;;;;;;2.47;1.60;;;21.00;62.10;;;;;;4860189;28;91227;-93
2023/05/01 04:40:30;;;;;;;1.65;1.42;;;21.10;62.20;;;;;;4861529;28;87143;-92
2023/05/01 04:42:56;;;;;;;2.58;1.42;;;21.00;62.10;;;;;;4875808;28;89714;-92
2023/05/01 04:45:22;;;;;;;2.17;1.60;;;21.00;62.20;;;;;;4860933;28;90273;-91
2023/05/01 04:47:47;;;;;;;1.80;1.42;;;21.00;62.10;;;;;;4861102;28;88645;-91
2023/05/01 04:50:15;;;;;;;1.50;1.40;;;21.00;62.20;;;;;;4862339;28;87424;-91
2023/05/01 04:52:41;;;;;;;1.40;1.30;;;21.00;62.50;;;;;;4868005;28;89295;-92
2023/05/01 04:55:08;;;;;;;1.17;1.08;;;21.00;62.30;;;;;;4866094;28;90208;-92
2023/05/01 04:57:34;;;;;;;1.55;1.45;;;21.00;62.30;;;;;;4863737;28;90190;-93
2023/05/01 05:00:00;;;;;;;1.83;1.25;;;21.00;62.30;;;;;;4872695;28;88287;-93
2023/05/01 05:02:26;;;;;;;2.08;1.50;;;21.00;62.20;;;;;;4857935;28;87966;-91
2023/05/01 05:04:55;;;;;;;1.45;1.35;;;21.00;62.30;;;;;;4860084;28;90712;-92
2023/05/01 05:07:21;;;;;;;1.92;1.40;;;21.00;62.30;;;;;;4861167;28;94897;-93
2023/05/01 05:09:47;;;;;;;2.83;1.92;;;21.00;62.30;;;;;;4857553;28;87223;-92
2023/05/01 05:12:13;;;;;;;1.67;1.33;;;21.00;62.40;;;;;;4851000;28;89308;-92
2023/05/01 05:14:40;;;;;;;1.75;1.38;;;21.00;62.30;;;;;;4856780;28;91810;-92
2023/05/01 05:17:05;;;;;;;1.40;1.30;;;21.00;62.30;;;;;;4857550;28;89865;-91
2023/05/01 05:19:32;;;;;;;1.58;1.20;;;21.00;62.40;;;;;;4858543;28;87041;-92
2023/05/01 05:21:57;;;;;;;2.30;1.63;;;21.00;62.20;;;;;;4854759;28;89746;-93
2023/05/01 05:24:24;;;;;;;1.65;1.27;;;21.00;62.30;;;;;;4854347;28;91234;-93
2023/05/01 05:26:50;;;;;;;3.70;1.40;;;21.00;62.30;;;;;;4855750;28;90882;-93
2023/05/01 05:29:16;;;;;;;1.77;1.20;;;21.00;62.30;;;;;;4846196;28;87668;-92
2023/05/01 05:31:42;;;;;;;1.23;1.05;;;20.90;62.30;;;;;;4870831;28;89047;-92
2023/05/01 05:34:08;;;;;;;2.15;1.67;;;21.00;62.20;;;;;;4855773;28;90298;-92
2023/05/01 05:36:34;;;;;;;1.20;1.10;;;21.00;62.30;;;;;;4856379;28;90286;-92
2023/05/01 05:39:00;;;;;;;1.25;1.15;;;21.00;62.20;;;;;;4857000;28;86865;-92
2023/05/01 05:41:26;;;;;;;1.58;1.40;;;21.00;62.40;;;;;;4856909;28;90318;-93
2023/05/01 05:43:53;;;;;;;1.63;1.30;;;21.00;62.00;;;;;;4858144;28;91536;-92
2023/05/01 05:46:18;;;;;;;2.10;1.60;;;20.90;61.90;;;;;;4874997;28;89923;-94
2023/05/01 05:48:44;;;;;;;2.13;1.10;;;21.00;62.10;;;;;;4855882;28;88175;-93
2023/05/01 05:51:10;;;;;;;1.98;1.30;;;21.00;62.10;;;;;;4854410;28;90728;-92
2023/05/01 05:53:36;;;;;;;1.17;1.08;;;21.00;62.10;;;;;;4855246;28;90523;-93
2023/05/01 05:56:02;;;;;;;1.50;1.40;;;21.00;62.20;;;;;;4857048;28;90657;-92
2023/05/01 05:58:27;;;;;;;1.42;1.33;;;21.00;62.10;;;;;;4856107;28;87001;-92
2023/05/01 06:00:54;;;;;;;1.77;1.40;;;21.00;62.10;;;;;;4855591;28;89529;-93
2023/05/01 06:03:21;;;;;;;2.17;1.48;;;21.00;62.10;;;;;;4855070;28;91369;-92
2023/05/01 06:05:47;;;;;;;1.60;1.40;;;20.90;62.10;;;;;;4855749;28;90965;-91
2023/05/01 06:08:13;;;;;;;1.45;1.20;;;21.00;62.30;;;;;;4855122;28;87146;-93
2023/05/01 06:10:42;;;;;;;1.85;1.30;;;21.00;62.20;;;;;;4858363;28;88303;-92
2023/05/01 06:13:08;;;;;;;1.30;1.20;;;20.90;62.20;;;;;;4854257;28;92050;-91
2023/05/01 06:15:38;;;;;;;1.60;1.20;;;21.00;62.10;;;;;;4856402;28;91963;-92
2023/05/01 06:18:04;;;;;;;6.07;2.00;;;21.00;61.80;;;;;;4855167;28;87528;-93
2023/05/01 06:20:30;;;;;;;1.55;1.45;;;21.10;61.20;;;;;;4856541;28;89811;-94
2023/05/01 06:22:56;;;;;;;1.90;1.67;;;21.10;60.40;;;;;;4857043;28;90326;-94
2023/05/01 06:25:23;;;;;;;2.20;1.40;;;21.10;60.70;;;;;;4854916;28;89543;-91
2023/05/01 06:27:55;;;;;;;2.47;1.40;;;21.10;61.00;;;;;;4875654;28;87463;-92
2023/05/01 06:30:21;;;;;;;1.40;1.30;;;21.10;61.40;;;;;;4859249;28;88122;-95
2023/05/01 06:32:47;;;;;;;1.80;1.40;;;21.10;61.30;;;;;;4855144;28;89751;-92
2023/05/01 06:35:12;;;;;;;4.28;1.50;;;21.20;61.30;;;;;;4856108;28;89951;-95
2023/05/01 06:37:38;;;;;;;2.58;1.67;;;21.10;61.60;;;;;;4858789;28;87860;-88
2023/05/01 06:40:08;;;;;;;3.75;1.98;;;21.10;62.00;;;;;;4855050;28;87206;-93
2023/05/01 06:42:37;;;;;;;3.17;1.90;;;21.20;62.20;;;;;;4870710;28;94319;-95
2023/05/01 06:45:04;;;;;;;3.00;1.95;;;21.10;62.50;;;;;;4856498;28;90390;-94
2023/05/01 06:47:29;;;;;;;5.40;1.98;;;21.30;62.40;;;;;;4856430;28;87066;-94
2023/05/01 06:49:55;;;;;;;3.08;1.92;;;21.20;62.40;;;;;;4852483;29;89680;-95
2023/05/01 06:52:21;;;;;;;5.68;2.10;;;21.10;62.40;;;;;;4871150;28;90189;-94
2023/05/01 06:54:47;;;;;;;6.03;2.20;;;21.10;63.70;;;;;;4856962;28;91034;-95
2023/05/01 06:57:13;;;;;;;7.13;2.42;;;21.10;63.20;;;;;;4856036;28;87119;-94
2023/05/01 06:59:39;;;;;;;3.00;1.95;;;21.10;63.50;;;;;;4854043;28;90921;-94
2023/05/01 07:02:05;;;;;;;4.05;1.95;;;21.10;63.10;;;;;;4853252;28;92599;-93
2023/05/01 07:04:31;;;;;;;3.35;1.85;;;21.20;63.00;;;;;;4856564;28;92330;-93
2023/05/01 07:06:56;;;;;;;2.05;1.75;;;21.10;63.00;;;;;;4846991;28;87924;-94
2023/05/01 07:09:22;;;;;;;4.75;2.00;;;21.10;63.10;;;;;;4827768;29;90138;-88
2023/05/01 07:11:48;;;;;;;2.10;1.75;;;21.20;63.00;;;;;;4838774;29;89186;-93
2023/05/01 07:14:14;;;;;;;2.42;1.70;;;21.20;63.20;;;;;;4831636;28;91295;-94
2023/05/01 07:16:40;;;;;;;4.72;2.30;;;21.10;62.80;;;;;;4856094;28;87257;-95
2023/05/01 07:19:06;;;;;;;6.65;2.25;;;21.10;61.90;;;;;;4872872;28;87121;-96
2023/05/01 07:21:32;;;;;;;1.85;1.70;;;21.10;61.10;;;;;;4872356;28;90415;-95
2023/05/01 07:23:58;;;;;;;3.13;2.08;;;21.10;61.70;;;;;;4856559;28;90498;-94
2023/05/01 07:26:26;;;;;;;2.15;1.80;;;21.10;63.30;;;;;;4869679;28;88186;-93
2023/05/01 07:28:51;;;;;;;4.38;1.83;;;21.10;62.80;;;;;;4858533;28;88154;-92
2023/05/01 07:31:17;;;;;;;2.08;1.80;;;21.10;62.80;;;;;;4856496;28;90043;-95
2023/05/01 07:33:46;;;;;;;2.58;2.13;;;21.20;63.00;;;;;;4872085;28;90882;-92
2023/05/01 07:36:17;;;;;;;5.18;2.17;;;21.20;62.90;;;;;;4851487;28;87470;-90
2023/05/01 07:38:43;;;;;;;5.10;2.10;;;21.20;62.90;;;;;;4867837;28;89292;-94
2023/05/01 07:41:09;;;;;;;3.05;2.20;;;21.20;62.60;;;;;;4855305;28;91034;-94
2023/05/01 07:43:35;;;;;;;6.10;2.50;;;21.30;61.60;;;;;;4851966;28;89661;-91
2023/05/01 07:46:01;;;;;;;8.23;3.40;;;21.50;60.90;;;;;;4852091;28;87276;-93
2023/05/01 07:48:27;;;;;;;7.43;3.60;;;21.60;60.40;;;;;;4872732;28;90204;-93
2023/05/01 07:50:54;;;;;;;12.05;3.40;;;21.60;60.00;;;;;;4856544;28;91915;-94
2023/05/01 07:53:21;;;;;;;9.82;3.70;;;21.60;59.70;;;;;;4868411;28;92162;-92
2023/05/01 07:55:48;;;;;;;10.55;4.38;;;21.60;59.10;;;;;;4782864;28;87728;-95
2023/05/01 07:58:16;;;;;;;13.90;4.00;;;21.60;59.20;;;;;;4870709;28;89123;-93
2023/05/01 08:00:44;;;;;;;8.82;3.83;;;21.60;59.50;;;;;;4856699;28;91846;-94
2023/05/01 08:03:11;;;;;;;8.20;3.38;;;21.70;58.50;;;;;;4855951;28;90803;-93
2023/05/01 08:05:39;;;;;;;7.43;2.97;;;21.60;58.70;;;;;;4853541;28;87492;-93
2023/05/01 08:08:05;;;;;;;7.65;3.47;;;21.60;58.90;;;;;;4857423;28;89199;-94
2023/05/01 08:10:31;;;;;;;14.70;3.35;;;21.60;58.70;;;;;;4871692;28;91883;-95
2023/05/01 08:12:57;;;;;;;12.02;3.90;;;21.70;58.70;;;;;;4856526;28;88960;-94
2023/05/01 08:15:23;;;;;;;10.20;3.80;;;21.60;58.80;;;;;;4856101;28;88444;-95
2023/05/01 08:17:50;;;;;;;8.52;3.75;;;21.70;58.90;;;;;;4855425;28;89671;-95
2023/05/01 08:20:15;;;;;;;8.38;3.75;;;21.60;58.80;;;;;;4856349;28;90555;-92
2023/05/01 08:22:41;;;;;;;8.07;3.70;;;21.60;59.10;;;;;;4853056;28;88391;-93
2023/05/01 08:25:07;;;;;;;9.73;3.70;;;21.60;60.00;;;;;;4854851;28;87309;-94
2023/05/01 08:27:33;;;;;;;11.57;3.92;;;21.60;61.20;;;;;;4854324;28;89113;-95
2023/05/01 08:29:59;;;;;;;10.95;4.10;;;21.60;62.10;;;;;;4855306;28;93172;-93
2023/05/01 08:32:25;;;;;;;13.63;4.43;;;21.60;63.10;;;;;;4856866;28;89663;-94
2023/05/01 08:34:51;;;;;;;11.48;4.57;;;21.60;64.20;;;;;;4856668;28;87216;-95
2023/05/01 08:37:18;;;;;;;14.18;5.38;;;21.60;65.60;;;;;;4853865;28;88874;-93
2023/05/01 08:39:43;;;;;;;12.40;4.60;;;21.60;66.60;;;;;;4853893;28;91060;-92
2023/05/01 08:42:10;;;;;;;11.07;4.57;;;21.70;66.30;;;;;;4855117;28;90956;-92
2023/05/01 08:44:39;;;;;;;10.15;4.55;;;21.70;66.90;;;;;;4852659;28;87277;-92
2023/05/01 08:47:15;;;;;;;13.02;4.90;;;21.70;67.30;;;;;;4853919;28;88717;-92
2023/05/01 08:49:42;;;;;;;16.50;4.80;;;21.70;67.60;;;;;;4855529;28;91246;-93
2023/05/01 08:52:10;;;;;;;13.38;5.03;;;21.70;67.60;;;;;;4856317;28;89310;-94
2023/05/01 08:54:38;;;;;;;13.67;5.73;;;21.80;66.90;;;;;;4855546;28;87551;-94
2023/05/01 08:57:08;;;;;;;10.40;4.70;;;21.80;66.90;;;;;;4856998;28;89521;-95
2023/05/01 08:59:34;;;;;;;12.70;5.05;;;21.80;66.50;;;;;;4855424;28;90686;-92
2023/05/01 09:02:05;;;;;;;11.57;4.90;;;21.80;67.10;;;;;;4870623;28;91344;-93
2023/05/01 09:04:40;;;;;;;10.70;4.45;;;21.80;67.00;;;;;;4857808;28;87970;-93
2023/05/01 09:07:08;;;;;;;13.45;4.68;;;21.70;66.40;;;;;;4857628;28;90396;-95
2023/05/01 09:09:34;;;;;;;8.65;4.75;;;21.70;66.20;;;;;;4857849;28;90337;-93
2023/05/01 09:12:03;;;;;;;14.65;4.72;;;21.70;66.30;;;;;;4858329;28;88945;-93
2023/05/01 09:14:30;;;;;;;;;;;21.70;65.90;;;;;;4858447;28;90047;-94
2023/05/01 09:16:56;;;;;;;10.60;4.45;;;21.80;65.20;;;;;;4860123;28;90102;-94
2023/05/01 09:19:21;;;;;;;9.45;5.05;;;21.90;62.80;;;;;;4856787;28;89058;-94
2023/05/01 09:21:47;;;;;;;11.18;4.35;;;21.90;62.80;;;;;;4873102;28;91036;-94
2023/05/01 09:24:13;;;;;;;7.93;4.57;;;21.90;62.70;;;;;;4854308;28;87016;-93
2023/05/01 09:26:43;;;;;;;11.52;4.57;;;21.90;62.30;;;;;;4871874;28;87524;-91
2023/05/01 09:29:09;;;;;;;8.60;4.53;;;22.10;62.60;;;;;;4855587;28;92303;-96
2023/05/01 09:31:35;;;;;;;12.95;5.28;;;22.10;61.60;;;;;;4857850;28;91573;-95
2023/05/01 09:34:02;;;;;;;9.57;4.20;;;22.10;62.10;;;;;;4859513;28;87229;-94
2023/05/01 09:36:30;;;;;;;10.95;4.70;;;22.10;61.00;;;;;;4858227;28;90448;-94
2023/05/01 09:38:57;;;;;;;11.65;4.47;;;22.10;61.00;;;;;;4858133;28;90426;-95
2023/05/01 09:41:23;;;;;;;8.40;4.35;;;22.00;61.90;;;;;;4855597;28;91289;-93
2023/05/01 09:43:51;;;;;;;9.07;4.68;;;21.90;61.30;;;;;;4857496;28;87402;-92
2023/05/01 09:46:17;;;;;;;13.43;4.43;;;21.90;61.00;;;;;;4857162;28;90194;-93
2023/05/01 09:48:59;;;;;;;17.83;4.85;;;22.00;61.00;;;;;;4856511;28;90821;-94
2023/05/01 09:51:33;;;;;;;17.77;6.07;;;22.10;61.40;;;;;;4855652;28;91308;-91
2023/05/01 09:54:01;;;;;;;22.67;7.03;;;22.20;61.10;;;;;;4856719;28;88289;-92
2023/05/01 09:56:28;;;;;;;21.33;7.35;;;22.30;61.20;;;;;;4871983;28;90187;-94
2023/05/01 09:58:57;;;;;;;22.50;7.25;;;22.20;61.10;;;;;;4856847;28;89654;-92
2023/05/01 10:01:43;;;;;;;38.72;8.05;;;22.30;61.20;;;;;;4852086;29;95095;-95
2023/05/01 10:04:09;;;;;;;22.13;8.30;;;22.20;61.50;;;;;;4835233;29;87258;-90
2023/05/01 10:06:36;;;;;;;22.45;7.90;;;22.20;61.60;;;;;;4835433;28;87081;-91
2023/05/01 10:09:02;;;;;;;23.73;9.05;;;22.30;62.10;;;;;;4836588;29;91788;-93
2023/05/01 10:11:28;;;;;;;23.98;8.02;;;22.40;62.30;;;;;;4827265;29;90179;-91
2023/05/01 10:14:10;;;;;;;18.00;6.38;;;22.40;62.10;;;;;;4839687;29;87049;-94
2023/05/01 10:16:37;;;;;;;24.20;8.05;;;22.40;60.60;;;;;;4855920;28;92208;-94
2023/05/01 10:19:05;;;;;;;20.65;7.85;;;22.40;61.50;;;;;;4854912;28;91464;-92
2023/05/01 10:21:32;;;;;;;22.35;7.03;;;22.40;61.60;;;;;;4856563;28;92435;-91
2023/05/01 10:24:00;;;;;;;19.63;7.85;;;22.40;61.60;;;;;;4856640;28;87461;-92
2023/05/01 10:26:27;;;;;;;29.33;8.15;;;22.40;61.60;;;;;;4856040;28;90303;-92
2023/05/01 10:28:53;;;;;;;19.80;7.32;;;22.30;61.50;;;;;;4855936;28;89346;-92
2023/05/01 10:31:19;;;;;;;25.70;8.48;;;22.30;61.30;;;;;;4856321;28;93708;-91
2023/05/01 10:33:46;;;;;;;26.50;7.78;;;22.20;61.40;;;;;;4857208;28;87029;-93
2023/05/01 10:36:19;;;;;;;16.02;7.10;;;22.20;61.40;;;;;;4870837;28;89048;-93
2023/05/01 10:38:47;;;;;;;21.42;7.07;;;22.20;61.00;;;;;;4874371;28;91370;-92
2023/05/01 10:41:15;;;;;;;16.98;7.80;;;22.20;61.30;;;;;;4871861;28;90836;-92
2023/05/01 10:43:41;;;;;;;22.63;6.97;;;22.20;61.40;;;;;;4855788;28;88127;-92
2023/05/01 10:46:07;;;;;;;24.98;7.28;;;22.20;61.00;;;;;;4855297;28;89033;-93
2023/05/01 10:48:42;;;;;;;21.38;8.55;;;22.20;61.20;;;;;;4855471;28;89843;-92
2023/05/01 10:51:20;;;;;;;20.70;7.45;;;22.10;61.30;;;;;;4855427;28;90054;-92
2023/05/01 10:54:12;;;;;;;21.55;8.10;;;22.20;62.40;;;;;;4857781;28;87211;-93
2023/05/01 10:56:37;;;;;;;16.45;6.47;;;22.10;61.30;;;;;;4873524;28;90013;-93
2023/05/01 10:59:04;;;;;;;17.83;6.93;;;22.10;61.70;;;;;;4873069;28;91433;-93
2023/05/01 11:01:40;;;;;;;23.05;7.70;;;22.10;61.90;;;;;;4857062;28;90781;-93
2023/05/01 11:04:18;;;;;;;19.85;7.50;;;22.10;61.80;;;;;;4871408;28;87598;-92
2023/05/01 11:07:06;;;;;;;13.68;6.03;;;22.10;62.10;;;;;;4840475;29;89859;-93
2023/05/01 11:09:37;;;;;;;15.40;6.63;;;22.00;61.70;;;;;;4857134;28;91418;-92
2023/05/01 11:12:05;;;;;;;17.23;6.72;;;22.00;61.80;;;;;;4847166;29;91102;-93
2023/05/01 11:14:52;;;;;;;16.25;6.55;;;22.00;61.80;;;;;;4844511;28;86934;-93
2023/05/01 11:17:40;;;;;;;12.70;5.82;;;22.00;61.60;;;;;;4872221;28;88178;-92
2023/05/01 11:20:10;;;;;;;16.67;6.50;;;22.00;61.60;;;;;;4854903;28;91520;-92
2023/05/01 11:22:38;;;;;;;14.48;6.32;;;22.00;61.70;;;;;;4864759;28;89466;-93
2023/05/01 11:25:20;;;;;;;13.83;6.20;;;22.00;61.50;;;;;;4870731;28;86934;-92
2023/05/01 11:27:51;;;;;;;16.70;6.50;;;22.00;61.80;;;;;;4870256;28;89106;-92
2023/05/01 11:30:18;;;;;;;14.00;6.10;;;21.90;62.00;;;;;;4862767;28;91964;-92
2023/05/01 11:32:45;;;;;;;12.63;5.47;;;22.00;62.10;;;;;;4855864;28;91053;-94
2023/05/01 11:35:21;;;;;;;16.33;6.55;;;21.90;62.10;;;;;;4871633;28;87991;-93
2023/05/01 11:37:47;;;;;;;14.48;6.97;;;21.90;62.10;;;;;;4871600;28;90285;-93
2023/05/01 11:40:39;;;;;;;19.45;6.82;;;22.00;63.10;;;;;;4855683;28;89697;-92
2023/05/01 11:43:06;;;;;;;15.25;6.15;;;21.90;62.30;;;;;;4869016;28;90354;-92
2023/05/01 11:45:36;;;;;;;15.43;6.03;;;21.90;62.20;;;;;;4855591;28;87033;-92
2023/05/01 11:48:02;;;;;;;14.38;6.13;;;21.90;62.10;;;;;;4854922;28;90251;-93
2023/05/01 11:50:38;;;;;;;14.30;6.15;;;21.90;62.10;;;;;;4858255;28;90049;-91
2023/05/01 11:53:16;;;;;;;11.60;5.88;;;21.90;62.00;;;;;;4860785;28;91247;-91
2023/05/01 11:55:43;;;;;;;13.23;5.93;;;22.00;62.10;;;;;;4862443;28;87486;-93
2023/05/01 11:58:09;;;;;;;12.30;5.55;;;21.90;62.00;;;;;;4855591;28;90606;-93
2023/05/01 12:00:37;;;;;;;13.80;5.90;;;21.90;61.90;;;;;;4853883;28;91122;-92
2023/05/01 12:03:05;;;;;;;12.63;5.97;;;21.90;61.90;;;;;;4854737;28;91506;-92
2023/05/01 12:05:31;;;;;;;11.10;5.80;;;21.90;61.80;;;;;;4856682;28;87048;-91
2023/05/01 12:08:10;;;;;;;14.45;5.68;;;21.90;61.90;;;;;;4857020;28;88750;-92
2023/05/01 12:10:38;;;;;;;13.10;5.82;;;21.90;62.00;;;;;;4854746;28;90398;-92
2023/05/01 12:13:06;;;;;;;11.95;5.85;;;21.90;61.90;;;;;;4855056;28;89131;-92
2023/05/01 12:15:35;;;;;;;13.13;5.85;;;21.90;61.70;;;;;;4869609;28;87419;-92
2023/05/01 12:18:02;;;;;;;16.30;6.28;;;21.90;61.70;;;;;;4854340;28;89015;-92
2023/05/01 12:20:38;;;;;;;14.32;6.13;;;21.90;61.70;;;;;;4854178;28;91301;-93
2023/05/01 12:23:09;;;;;;;11.27;5.32;;;21.90;61.80;;;;;;4861808;28;89374;-93
2023/05/01 12:25:38;;;;;;;11.93;5.90;;;21.90;61.70;;;;;;4855597;28;88054;-91
2023/05/01 12:28:11;;;;;;;13.77;6.28;;;21.90;61.70;;;;;;4854153;28;89316;-92
2023/05/01 12:30:39;;;;;;;10.15;5.32;;;21.90;61.70;;;;;;4853522;28;91046;-92
2023/05/01 12:33:13;;;;;;;12.73;5.40;;;21.90;61.60;;;;;;4855598;28;90803;-93
2023/05/01 12:35:41;;;;;;;11.82;5.30;;;21.90;61.50;;;;;;4854836;28;86997;-92
2023/05/01 12:38:16;;;;;;;13.02;5.95;;;21.90;61.50;;;;;;4855980;28;89749;-92
2023/05/01 12:40:56;;;;;;;13.20;6.03;;;21.90;61.40;;;;;;4859421;28;91563;-93
2023/05/01 12:43:33;;;;;;;12.70;5.72;;;21.90;61.20;;;;;;4857294;28;93075;-91
2023/05/01 12:46:00;;;;;;;13.48;5.93;;;21.90;61.30;;;;;;4859133;28;86926;-94
2023/05/01 12:48:27;;;;;;;11.20;4.88;;;21.90;61.50;;;;;;4857489;28;90315;-93